Time;durP1;ratioP1;P1;durP2;ratioP2;P2;SDS_P1;SDS_P2;PMS_P1;PMS_P2;Temp;Humidity;BMP_temperature;BMP_pressure;BME280_temperature;BME280_humidity;BME280_pressure;Samples;Min_cycle;Max_cycle;Signal;HPM_P1;HPM_P2
2022/12/17 13:06:10;;;;;;;24.55;12.63;;;;;;;-1.64;78.63;102242.19;5046703;28;20102;-61
2022/12/17 13:08:36;;;;;;;24.48;12.90;;;;;;;-1.60;78.86;102241.59;5055088;28;20115;-61
2022/12/17 13:11:25;;;;;;;24.55;11.82;;;;;;;-1.57;77.84;102239.25;5052402;28;20050;-61
2022/12/17 13:13:56;;;;;;;24.50;12.50;;;;;;;-1.51;78.18;102245.59;5047157;28;20126;-60
2022/12/17 13:16:48;;;;;;;21.83;11.73;;;;;;;-1.46;78.25;102242.50;5054400;28;20572;-60
2022/12/17 13:19:20;;;;;;;22.42;11.10;;;;;;;-1.45;76.99;102237.50;5054839;28;20040;-61
2022/12/17 13:21:45;;;;;;;25.17;12.43;;;;;;;-1.44;77.23;102240.91;5058995;28;20068;-60
2022/12/17 13:24:22;;;;;;;19.50;10.57;;;;;;;-1.47;76.33;102233.13;5056967;28;20155;-61
2022/12/17 13:26:47;;;;;;;20.67;10.65;;;;;;;-1.46;76.16;102229.81;5056519;28;20032;-61
2022/12/17 13:29:26;;;;;;;25.20;13.98;;;;;;;-1.49;76.64;102224.53;5050228;28;20401;-61
2022/12/17 13:31:51;;;;;;;25.50;12.63;;;;;;;-1.54;76.57;102224.22;5056230;28;20482;-61
2022/12/17 13:34:27;;;;;;;24.35;11.98;;;;;;;-1.54;76.40;102225.13;5055539;28;20040;-59
2022/12/17 13:37:00;;;;;;;24.63;10.52;;;;;;;-1.60;76.97;102228.91;5027795;28;20065;-59
2022/12/17 13:39:31;;;;;;;24.80;11.85;;;;;;;-1.63;76.00;102227.06;5033327;28;20044;-59
2022/12/17 13:41:57;;;;;;;20.10;11.38;;;;;;;-1.66;77.40;102226.88;5058083;28;20090;-59
2022/12/17 13:44:26;;;;;;;23.02;11.93;;;;;;;-1.68;77.55;102227.56;5082460;28;20448;-59
2022/12/17 13:46:53;;;;;;;24.60;11.98;;;;;;;-1.70;77.72;102221.53;5043757;28;20076;-59
2022/12/17 13:49:27;;;;;;;25.45;12.23;;;;;;;-1.69;77.34;102225.78;5050797;28;20097;-59
2022/12/17 13:52:17;;;;;;;22.67;10.75;;;;;;;-1.73;77.43;102219.66;5058495;28;20072;-59
2022/12/17 13:54:43;;;;;;;23.02;12.38;;;;;;;-1.74;78.19;102230.59;5056515;28;20048;-63
2022/12/17 13:57:16;;;;;;;23.00;10.80;;;;;;;-1.73;77.61;102236.53;5055179;28;20544;-63
2022/12/17 13:59:52;;;;;;;25.70;11.68;;;;;;;-1.80;77.81;102236.91;5056194;28;20032;-64
2022/12/17 14:02:24;;;;;;;24.58;12.98;;;;;;;-1.79;78.04;102231.06;5055636;28;20041;-63
2022/12/17 14:04:57;;;;;;;30.65;14.88;;;;;;;-1.81;78.42;102233.50;5058766;28;20767;-62
2022/12/17 14:07:24;;;;;;;34.47;17.27;;;;;;;-1.80;78.19;102236.91;5057692;28;20037;-64
2022/12/17 14:09:50;;;;;;;33.70;14.52;;;;;;;-1.80;77.97;102231.84;5058342;28;20037;-63
2022/12/17 14:12:21;;;;;;;26.35;13.48;;;;;;;-1.79;77.75;102238.69;5052969;28;20034;-62
2022/12/17 14:14:58;;;;;;;33.60;15.68;;;;;;;-1.79;78.30;102242.06;5056157;28;20113;-62
2022/12/17 14:17:25;;;;;;;29.48;15.95;;;;;;;-1.80;78.46;102241.97;5054936;28;20036;-62
2022/12/17 14:20:12;;;;;;;27.65;13.68;;;;;;;-1.80;78.33;102242.88;5052854;28;20049;-63
2022/12/17 14:22:41;;;;;;;29.77;14.00;;;;;;;-1.81;78.70;102238.56;5055958;28;20758;-62
2022/12/17 14:25:18;;;;;;;26.38;12.68;;;;;;;-1.83;78.53;102239.25;5060340;28;20463;-63
2022/12/17 14:28:02;;;;;;;30.42;15.10;;;;;;;-1.85;79.08;102245.88;5064182;28;20040;-70
2022/12/17 14:30:41;;;;;;;27.30;14.70;;;;;;;-1.89;78.99;102254.94;5063620;28;20051;-70
2022/12/17 14:33:34;;;;;;;28.10;15.38;;;;;;;-1.91;78.98;102259.03;5056147;28;20024;-62
2022/12/17 14:36:05;;;;;;;30.92;16.00;;;;;;;-1.96;79.88;102250.25;5049576;28;20037;-62
2022/12/17 14:38:31;;;;;;;26.42;14.48;;;;;;;-1.98;79.92;102254.34;5057889;28;20577;-62
2022/12/17 14:44:00;;;;;;;28.60;15.60;;;;;;;-2.09;80.93;102247.69;5052098;28;20067;-62
2022/12/17 14:46:27;;;;;;;30.42;16.80;;;;;;;-2.14;80.83;102252.44;5053531;28;20502;-62
2022/12/17 14:49:00;;;;;;;31.60;17.95;;;;;;;-2.17;80.80;102252.25;5057497;28;20041;-63
2022/12/17 14:51:38;;;;;;;33.15;18.02;;;;;;;-2.21;81.37;102250.31;5054216;28;20040;-62
2022/12/17 14:54:27;;;;;;;30.17;15.13;;;;;;;-2.24;81.11;102254.28;5055708;28;20032;-63
2022/12/17 14:56:54;;;;;;;29.70;15.68;;;;;;;-2.30;81.45;102253.88;5055334;28;20079;-62
2022/12/17 14:59:33;;;;;;;28.67;15.32;;;;;;;-2.32;81.31;102252.91;5054315;28;20107;-70
2022/12/17 15:02:26;;;;;;;28.55;14.85;;;;;;;-2.39;81.95;102258.31;5069442;28;20044;-70
2022/12/17 15:04:55;;;;;;;100.15;62.80;;;;;;;-2.44;82.30;102258.00;5065271;28;20040;-70
2022/12/17 15:07:30;;;;;;;49.13;36.85;;;;;;;-2.50;82.23;102266.84;5058591;28;20041;-70
2022/12/17 15:09:57;;;;;;;39.33;23.08;;;;;;;-2.56;82.65;102261.38;5063081;28;20028;-70
2022/12/17 15:12:24;;;;;;;29.98;16.33;;;;;;;-2.62;82.76;102256.78;5066813;28;20083;-70
2022/12/17 15:14:50;;;;;;;27.92;15.00;;;;;;;-2.68;82.85;102258.91;5063361;28;20380;-70
2022/12/17 15:17:15;;;;;;;33.45;15.30;;;;;;;-2.73;83.00;102266.16;5065415;28;20030;-70
2022/12/17 15:19:41;;;;;;;35.95;18.98;;;;;;;-2.77;83.45;102260.78;5066020;28;20029;-69
2022/12/17 15:22:14;;;;;;;30.88;17.13;;;;;;;-2.81;83.51;102257.16;5057431;28;20143;-69
2022/12/17 15:24:39;;;;;;;32.38;16.73;;;;;;;-2.85;83.80;102256.84;5055480;28;20033;-69
2022/12/17 15:27:05;;;;;;;31.42;16.13;;;;;;;-2.93;83.50;102273.16;5058635;28;20025;-66
2022/12/17 15:29:30;;;;;;;32.35;16.13;;;;;;;-2.99;83.91;102270.19;5058193;28;20111;-70
2022/12/17 15:31:56;;;;;;;29.30;13.85;;;;;;;-3.07;84.17;102266.25;5063984;28;20676;-69
2022/12/17 15:34:21;;;;;;;29.65;15.85;;;;;;;-3.14;84.59;102269.13;5058329;28;20047;-69
2022/12/17 15:36:47;;;;;;;26.48;15.00;;;;;;;-3.17;84.53;102279.91;5058303;28;20032;-69
2022/12/17 15:39:12;;;;;;;36.97;17.80;;;;;;;-3.22;84.63;102284.66;5055762;28;20032;-69
2022/12/17 15:44:21;;;;;;;30.85;15.63;;;;;;;-3.28;84.78;102284.22;5060920;28;20844;-70
2022/12/17 15:46:47;;;;;;;37.88;16.58;;;;;;;-3.34;84.97;102287.94;5060427;28;20033;-70
2022/12/17 15:49:12;;;;;;;33.25;17.40;;;;;;;-3.41;85.20;102279.03;5056517;28;20037;-70
2022/12/17 15:51:38;;;;;;;34.35;17.67;;;;;;;-3.43;85.37;102285.66;5053352;28;20096;-69
2022/12/17 15:54:03;;;;;;;31.63;16.52;;;;;;;-3.44;85.23;102288.06;5055108;28;20123;-69
2022/12/17 15:56:28;;;;;;;40.05;22.23;;;;;;;-3.48;85.57;102291.16;5058778;28;20098;-70
2022/12/17 15:58:58;;;;;;;32.60;18.95;;;;;;;-3.48;85.54;102294.53;5057036;28;20442;-70
2022/12/17 16:01:23;;;;;;;40.72;21.92;;;;;;;-3.55;85.19;102289.81;5055715;28;20036;-71
2022/12/17 16:03:48;;;;;;;34.78;20.10;;;;;;;-3.57;85.28;102295.53;5058200;28;20683;-70
2022/12/17 16:06:14;;;;;;;36.67;22.70;;;;;;;-3.58;85.73;102293.78;5056844;28;20046;-69
2022/12/17 16:08:39;;;;;;;43.05;25.95;;;;;;;-3.63;85.25;102293.47;5056783;28;20726;-69
2022/12/17 16:11:06;;;;;;;33.25;18.42;;;;;;;-3.64;85.42;102295.84;5062060;28;20453;-70
2022/12/17 16:13:32;;;;;;;32.88;17.60;;;;;;;-3.72;85.38;102292.78;5057405;28;20047;-69
2022/12/17 16:15:57;;;;;;;43.08;25.23;;;;;;;-3.74;85.76;102296.81;5060767;28;20036;-69
2022/12/17 16:18:23;;;;;;;43.42;28.45;;;;;;;-3.80;85.70;102296.38;5055832;28;20133;-70
2022/12/17 16:20:49;;;;;;;37.45;21.98;;;;;;;-3.82;85.86;102295.41;5056296;28;20735;-70
2022/12/17 16:23:14;;;;;;;32.28;19.42;;;;;;;-3.87;85.76;102297.59;5049204;28;20072;-70
2022/12/17 16:25:59;;;;;;;36.30;17.83;;;;;;;-3.87;86.00;102296.72;5055080;27;20395;-63
2022/12/17 16:28:25;;;;;;;35.47;18.75;;;;;;;-3.88;86.12;102298.34;5038713;28;20042;-63
2022/12/17 16:31:12;;;;;;;34.17;16.95;;;;;;;-3.93;86.25;102304.72;5044035;28;20042;-63
2022/12/17 16:33:39;;;;;;;40.97;19.95;;;;;;;-3.92;86.29;102298.88;5041312;28;20037;-64
2022/12/17 16:36:06;;;;;;;34.58;19.58;;;;;;;-3.93;85.96;102299.69;5044414;28;20068;-65
2022/12/17 16:38:32;;;;;;;52.75;29.20;;;;;;;-3.92;85.91;102306.47;5044287;28;20036;-63
2022/12/17 16:41:01;;;;;;;64.18;35.17;;;;;;;-3.94;86.16;102312.19;5038980;28;20037;-63
2022/12/17 16:43:28;;;;;;;104.93;65.13;;;;;;;-3.98;86.18;102320.28;5047188;28;20036;-64
2022/12/17 16:45:53;;;;;;;65.93;42.17;;;;;;;-4.04;86.28;102317.28;5044973;28;20376;-64
2022/12/17 16:48:20;;;;;;;55.92;36.00;;;;;;;-4.10;86.54;102312.69;5042439;28;20039;-64
2022/12/17 16:50:47;;;;;;;65.00;43.08;;;;;;;-4.14;86.51;102317.41;5043602;28;20031;-64
2022/12/17 16:53:12;;;;;;;52.30;27.15;;;;;;;-4.20;86.49;102321.97;5039075;28;20386;-64
2022/12/17 16:55:43;;;;;;;41.80;22.60;;;;;;;-4.22;87.15;102326.06;5043372;28;20052;-64
2022/12/17 16:58:09;;;;;;;47.45;22.88;;;;;;;-4.28;87.06;102328.97;5043584;28;20041;-64
2022/12/17 17:00:35;;;;;;;46.47;25.13;;;;;;;-4.30;87.25;102330.50;5042028;28;20375;-64
2022/12/17 17:03:01;;;;;;;37.75;20.08;;;;;;;-4.35;87.30;102335.22;5045067;28;20029;-64
2022/12/17 17:05:26;;;;;;;46.42;23.02;;;;;;;-4.40;87.50;102335.63;5041277;28;20049;-64
2022/12/17 17:07:52;;;;;;;46.75;23.23;;;;;;;-4.44;87.68;102342.09;5042951;28;20045;-64
2022/12/17 17:10:18;;;;;;;43.17;19.58;;;;;;;-4.47;88.02;102346.00;5046297;28;20072;-64
2022/12/17 17:12:43;;;;;;;41.70;18.83;;;;;;;-4.53;88.00;102348.94;5045458;28;20082;-64
2022/12/17 17:15:09;;;;;;;40.95;19.00;;;;;;;-4.54;88.02;102346.28;5040378;28;20770;-64
2022/12/17 17:17:34;;;;;;;37.75;16.13;;;;;;;-4.61;88.13;102355.06;5038504;28;20025;-64
2022/12/17 17:20:00;;;;;;;41.90;19.00;;;;;;;-4.62;88.52;102354.97;5040798;28;20120;-64
2022/12/17 17:22:25;;;;;;;39.25;17.75;;;;;;;-4.67;88.55;102349.56;5045037;28;20037;-64
2022/12/17 17:24:51;;;;;;;38.13;18.02;;;;;;;-4.71;89.10;102349.19;5042921;28;20108;-64
2022/12/17 17:27:16;;;;;;;40.03;18.58;;;;;;;-4.76;88.98;102351.38;5042780;28;20037;-64
2022/12/17 17:29:41;;;;;;;39.60;18.38;;;;;;;-4.81;89.20;102352.66;5042437;28;20033;-64
2022/12/17 17:32:07;;;;;;;43.47;20.20;;;;;;;-4.84;89.23;102351.53;5034850;28;20049;-65
2022/12/17 17:34:32;;;;;;;40.90;20.65;;;;;;;-4.84;89.52;102357.44;5043149;28;20110;-64
2022/12/17 17:36:58;;;;;;;42.05;20.77;;;;;;;-4.83;89.96;102359.22;5030090;28;20099;-64
2022/12/17 17:39:23;;;;;;;44.78;20.42;;;;;;;-4.82;89.58;102363.50;5025343;28;20079;-64
2022/12/17 17:41:48;;;;;;;43.72;20.90;;;;;;;-4.84;89.94;102365.00;5027079;28;20068;-63
2022/12/17 17:44:15;;;;;;;45.25;21.10;;;;;;;-4.87;89.72;102354.69;5027705;28;20038;-64
2022/12/17 17:46:40;;;;;;;45.10;22.15;;;;;;;-4.89;90.14;102363.78;5021257;28;20049;-64
2022/12/17 17:49:07;;;;;;;41.45;21.20;;;;;;;-4.91;90.45;102367.84;5028628;28;20037;-64
2022/12/17 17:51:36;;;;;;;40.67;21.17;;;;;;;-4.87;90.11;102359.72;5028967;28;20040;-64
2022/12/17 17:54:02;;;;;;;47.08;21.75;;;;;;;-4.84;90.25;102362.50;5031034;28;20024;-64
2022/12/17 17:56:33;;;;;;;45.13;20.30;;;;;;;-4.81;90.20;102356.81;5039802;28;20087;-63
2022/12/17 17:59:01;;;;;;;40.33;20.50;;;;;;;-4.82;90.27;102357.59;5029045;28;20509;-64
2022/12/17 18:01:33;;;;;;;42.38;19.90;;;;;;;-4.85;90.03;102364.91;5028485;28;20034;-64
2022/12/17 18:04:00;;;;;;;41.63;20.05;;;;;;;-4.86;89.94;102363.13;5035384;28;20037;-64
2022/12/17 18:06:26;;;;;;;41.72;18.95;;;;;;;-4.90;90.04;102362.91;5029545;28;20176;-64
2022/12/17 18:08:53;;;;;;;41.40;19.63;;;;;;;-4.96;90.31;102367.44;5028018;28;20564;-64
2022/12/17 18:11:19;;;;;;;40.22;17.63;;;;;;;-5.01;90.38;102377.94;5020257;28;20150;-64
2022/12/17 18:13:54;;;;;;;48.78;21.27;;;;;;;-5.08;90.12;102379.09;5030230;28;20035;-63
2022/12/17 18:16:40;;;;;;;43.50;20.75;;;;;;;-5.12;90.26;102376.22;5028895;28;20034;-64
2022/12/17 18:19:14;;;;;;;47.58;23.15;;;;;;;-5.16;90.70;102386.81;5026134;28;20041;-64
2022/12/17 18:21:40;;;;;;;40.00;19.73;;;;;;;-5.19;90.44;102382.41;5027160;28;20749;-64
2022/12/17 18:24:10;;;;;;;39.20;18.88;;;;;;;-5.21;91.11;102390.59;5030042;28;20121;-64
2022/12/17 18:26:41;;;;;;;44.17;20.65;;;;;;;-5.21;90.86;102388.97;5030120;28;20386;-64
2022/12/17 18:29:15;;;;;;;52.25;23.23;;;;;;;-5.22;91.03;102382.16;5031601;28;20059;-64
2022/12/17 18:31:41;;;;;;;58.67;22.98;;;;;;;-5.17;91.23;102380.88;5026923;28;20038;-64
2022/12/17 18:34:09;;;;;;;57.85;25.65;;;;;;;-5.16;91.46;102379.25;5031592;28;20052;-64
2022/12/17 18:36:38;;;;;;;55.80;24.48;;;;;;;-5.14;91.50;102377.72;5032115;28;20116;-64
2022/12/17 18:39:11;;;;;;;61.90;24.45;;;;;;;-5.09;91.28;102368.91;5024645;28;20029;-64
2022/12/17 18:44:21;;;;;;;49.88;22.42;;;;;;;-5.11;91.68;102370.41;5029995;28;20520;-64
2022/12/17 18:46:47;;;;;;;49.38;23.70;;;;;;;-5.12;91.50;102374.59;5034710;28;20064;-64
2022/12/17 18:49:14;;;;;;;56.35;24.92;;;;;;;-5.06;91.74;102372.56;5028756;28;20054;-64
2022/12/17 18:51:43;;;;;;;57.13;24.13;;;;;;;-5.05;91.43;102380.97;5025384;28;20474;-64
2022/12/17 18:54:13;;;;;;;59.40;26.35;;;;;;;-5.08;91.30;102376.56;5025475;28;20140;-63
2022/12/17 18:56:39;;;;;;;45.65;22.45;;;;;;;-5.08;91.64;102378.19;5029682;28;20036;-64
2022/12/17 18:59:05;;;;;;;47.97;24.08;;;;;;;-5.13;91.17;102380.38;5024162;28;20042;-64
2022/12/17 19:01:34;;;;;;;42.83;20.10;;;;;;;-5.15;91.38;102386.94;5028126;28;20666;-64
2022/12/17 19:04:05;;;;;;;48.47;23.55;;;;;;;-5.24;90.71;102378.66;5029038;28;20556;-64
2022/12/17 19:06:32;;;;;;;49.90;25.00;;;;;;;-5.29;90.96;102377.38;5029219;28;20029;-64
2022/12/17 19:08:58;;;;;;;48.97;26.35;;;;;;;-5.29;90.97;102384.09;5028380;28;20048;-64
2022/12/17 19:11:24;;;;;;;43.63;23.50;;;;;;;-5.32;91.16;102386.34;5027243;28;20037;-64
2022/12/17 19:13:50;;;;;;;52.80;24.23;;;;;;;-5.36;90.90;102387.75;5024274;28;20048;-64
2022/12/17 19:16:19;;;;;;;42.63;20.20;;;;;;;-5.37;91.33;102392.63;5027266;28;20116;-64
2022/12/17 19:18:53;;;;;;;44.15;22.63;;;;;;;-5.43;91.23;102398.06;5025692;28;20037;-64
2022/12/17 19:21:19;;;;;;;43.05;21.05;;;;;;;-5.46;91.27;102400.34;5025745;28;20069;-64
2022/12/17 19:23:45;;;;;;;46.28;19.92;;;;;;;-5.47;91.09;102399.44;5022327;28;20061;-64
2022/12/17 19:26:14;;;;;;;46.22;21.63;;;;;;;-5.50;91.42;102396.69;5028098;28;20049;-64
2022/12/17 19:28:41;;;;;;;46.70;21.30;;;;;;;-5.54;91.43;102397.22;5025187;28;20041;-63
2022/12/17 19:31:07;;;;;;;42.17;20.98;;;;;;;-5.55;91.48;102403.00;5028979;28;20515;-64
2022/12/17 19:33:33;;;;;;;45.58;21.67;;;;;;;-5.58;91.30;102397.72;5029645;28;20045;-63
2022/12/17 19:36:03;;;;;;;45.20;21.10;;;;;;;-5.58;91.03;102404.38;5028873;28;20465;-64
2022/12/17 19:38:29;;;;;;;49.55;22.83;;;;;;;-5.56;91.24;102403.75;5028113;28;20037;-64
2022/12/17 19:40:55;;;;;;;52.92;24.35;;;;;;;-5.50;90.60;102410.94;5024928;28;20402;-64
2022/12/17 19:43:20;;;;;;;50.50;22.73;;;;;;;-5.47;90.28;102408.66;5026455;28;20083;-64
2022/12/17 19:45:46;;;;;;;55.80;25.02;;;;;;;-5.47;90.28;102399.44;5027393;28;20489;-64
2022/12/17 19:48:13;;;;;;;68.75;30.17;;;;;;;-5.50;90.49;102406.75;5026795;28;20037;-64
2022/12/17 19:50:39;;;;;;;73.28;30.45;;;;;;;-5.51;90.22;102407.53;5027813;28;20499;-65
2022/12/17 19:53:05;;;;;;;65.55;26.55;;;;;;;-5.51;89.72;102419.25;5029880;28;20037;-63
2022/12/17 19:55:30;;;;;;;51.78;23.65;;;;;;;-5.50;90.12;102418.50;5027160;28;20041;-64
2022/12/17 19:57:56;;;;;;;49.75;24.27;;;;;;;-5.52;90.08;102420.88;5029942;28;20041;-63
2022/12/17 20:00:21;;;;;;;46.75;22.50;;;;;;;-5.54;90.39;102417.38;5026790;28;20041;-64
2022/12/17 20:02:47;;;;;;;52.42;24.95;;;;;;;-5.55;90.30;102410.56;5026859;28;20390;-64
2022/12/17 20:05:12;;;;;;;58.63;27.67;;;;;;;-5.58;90.70;102411.94;5029115;28;20041;-64
2022/12/17 20:07:38;;;;;;;55.75;28.38;;;;;;;-5.61;90.59;102427.69;5028977;28;20038;-64
2022/12/17 20:10:04;;;;;;;58.00;28.77;;;;;;;-5.65;90.67;102425.66;5023494;28;20525;-64
2022/12/17 20:12:30;;;;;;;52.58;26.73;;;;;;;-5.67;90.71;102423.75;5022172;28;20136;-64
2022/12/17 20:14:55;;;;;;;54.60;23.63;;;;;;;-5.67;90.65;102428.81;5027921;28;20541;-64
2022/12/17 20:17:21;;;;;;;44.80;21.45;;;;;;;-5.72;90.74;102432.59;5021338;28;20510;-65
2022/12/17 20:19:48;;;;;;;44.78;20.50;;;;;;;-5.77;90.75;102427.19;5029070;28;20520;-64
2022/12/17 20:22:13;;;;;;;48.70;22.40;;;;;;;-5.79;90.72;102436.22;5027432;28;20117;-64
2022/12/17 20:24:39;;;;;;;50.05;23.15;;;;;;;-5.82;90.68;102432.56;5029440;28;20037;-64
2022/12/17 20:27:05;;;;;;;48.65;23.10;;;;;;;-5.83;90.72;102443.41;5025153;28;20033;-64
2022/12/17 20:29:30;;;;;;;46.92;22.35;;;;;;;-5.82;90.39;102443.53;5021926;28;20647;-64
2022/12/17 20:31:56;;;;;;;50.05;23.95;;;;;;;-5.76;90.61;102438.13;5027771;28;20065;-64
2022/12/17 20:34:23;;;;;;;47.90;21.48;;;;;;;-5.79;89.88;102451.34;5026695;28;20026;-64
2022/12/17 20:36:49;;;;;;;48.42;22.10;;;;;;;-5.80;90.36;102449.59;5029009;28;20033;-64
2022/12/17 20:39:15;;;;;;;41.13;19.38;;;;;;;-5.85;90.15;102453.34;5026968;28;20029;-64
2022/12/17 20:41:40;;;;;;;41.05;20.40;;;;;;;-5.88;90.42;102453.09;5024567;28;20037;-64
2022/12/17 20:44:15;;;;;;;45.72;19.77;;;;;;;-5.91;90.11;102454.47;5024980;28;20529;-64
2022/12/17 20:46:41;;;;;;;50.60;23.77;;;;;;;-5.91;90.28;102456.97;5028631;28;20061;-64
2022/12/17 20:49:09;;;;;;;53.10;26.45;;;;;;;-5.86;90.34;102459.16;5030167;28;20053;-63
2022/12/17 20:51:34;;;;;;;54.90;25.65;;;;;;;-5.85;90.47;102457.50;5029294;28;20057;-64
2022/12/17 20:54:01;;;;;;;46.30;24.73;;;;;;;-5.88;90.54;102465.66;5029271;28;20026;-64
2022/12/17 20:56:32;;;;;;;48.75;23.80;;;;;;;-5.92;90.60;102460.25;5029660;28;20045;-64
2022/12/17 20:59:12;;;;;;;47.33;21.10;;;;;;;-5.94;90.86;102452.56;5027980;28;20096;-63
2022/12/17 21:01:37;;;;;;;49.38;20.20;;;;;;;-5.97;90.74;102454.81;5022405;28;20410;-64
2022/12/17 21:04:06;;;;;;;47.10;19.83;;;;;;;-5.93;90.48;102453.47;5028076;28;20034;-64
2022/12/17 21:06:37;;;;;;;46.67;19.05;;;;;;;-5.92;90.69;102458.63;5028215;28;20042;-64
2022/12/17 21:09:03;;;;;;;44.50;20.98;;;;;;;-5.89;90.79;102450.44;5030949;28;20018;-64
2022/12/17 21:11:31;;;;;;;50.17;20.63;;;;;;;-5.85;90.81;102454.97;5028769;28;20038;-64
2022/12/17 21:13:57;;;;;;;43.22;20.30;;;;;;;-5.78;90.65;102454.75;5030375;28;20045;-64
2022/12/17 21:16:28;;;;;;;42.88;19.05;;;;;;;-5.79;90.39;102452.97;5033225;28;20446;-64
2022/12/17 21:18:58;;;;;;;50.05;20.75;;;;;;;-5.80;89.76;102457.16;5024205;28;20048;-64
2022/12/17 21:21:30;;;;;;;44.58;18.63;;;;;;;-5.84;89.72;102461.78;5030564;28;20028;-64
2022/12/17 21:23:56;;;;;;;45.08;20.13;;;;;;;-5.83;89.89;102466.97;5028371;28;20030;-64
2022/12/17 21:26:25;;;;;;;49.38;22.70;;;;;;;-5.84;90.08;102461.78;5026183;28;20136;-64
2022/12/17 21:28:53;;;;;;;40.95;18.95;;;;;;;-5.88;89.68;102463.16;5032182;28;20496;-64
2022/12/17 21:31:34;;;;;;;52.70;21.02;;;;;;;-5.93;89.53;102459.38;5025878;28;20042;-64
2022/12/17 21:34:02;;;;;;;43.60;20.52;;;;;;;-5.97;89.20;102456.50;5032256;28;20111;-63
2022/12/17 21:36:29;;;;;;;47.58;20.80;;;;;;;-6.00;89.27;102453.72;5025219;28;20030;-65
2022/12/17 21:38:55;;;;;;;43.33;19.50;;;;;;;-6.05;89.50;102451.69;5032061;28;20374;-63
2022/12/17 21:41:23;;;;;;;41.40;20.20;;;;;;;-6.08;89.07;102448.03;5025272;28;20034;-63
2022/12/17 21:43:53;;;;;;;46.30;18.65;;;;;;;-6.10;89.12;102455.47;5037925;28;20037;-64
2022/12/17 21:46:19;;;;;;;39.60;18.23;;;;;;;-6.12;89.16;102453.53;5027419;28;20383;-64
2022/12/17 21:48:44;;;;;;;45.05;19.35;;;;;;;-6.15;88.87;102449.13;5030986;28;20052;-64
2022/12/17 21:51:12;;;;;;;39.55;18.10;;;;;;;-6.17;89.92;102455.69;5029447;28;20041;-65
2022/12/17 21:53:41;;;;;;;43.63;19.48;;;;;;;-6.19;89.23;102443.72;5037746;28;20025;-64
2022/12/17 21:56:12;;;;;;;44.47;18.15;;;;;;;-6.22;88.73;102444.34;5031777;28;20044;-63
2022/12/17 21:58:38;;;;;;;34.30;17.13;;;;;;;-6.25;88.94;102451.63;5030518;28;20147;-64
2022/12/17 22:01:09;;;;;;;37.20;17.65;;;;;;;-6.24;89.16;102465.97;5025322;28;20037;-64
2022/12/17 22:03:34;;;;;;;39.55;18.98;;;;;;;-6.26;89.08;102461.56;5029369;28;20041;-64
2022/12/17 22:06:08;;;;;;;44.17;18.45;;;;;;;-6.29;88.83;102459.66;5029506;28;20047;-63
2022/12/17 22:08:35;;;;;;;42.38;17.70;;;;;;;-6.29;88.42;102461.28;5026284;28;20083;-66
2022/12/17 22:11:00;;;;;;;35.13;15.70;;;;;;;-6.32;88.52;102466.06;5028095;28;20114;-64
2022/12/17 22:16:10;;;;;;;43.20;16.90;;;;;;;-6.41;88.64;102477.84;5025205;28;20043;-64
2022/12/17 22:18:35;;;;;;;36.03;16.50;;;;;;;-6.42;88.44;102483.66;5019058;28;20045;-63
2022/12/17 22:21:01;;;;;;;35.95;15.98;;;;;;;-6.45;88.18;102480.88;5021183;28;20033;-63
2022/12/17 22:23:26;;;;;;;38.63;17.55;;;;;;;-6.45;88.91;102471.69;5019752;28;20558;-64
2022/12/17 22:25:52;;;;;;;37.75;18.02;;;;;;;-6.48;88.93;102466.41;5026677;28;20039;-63
2022/12/17 22:28:18;;;;;;;46.60;17.83;;;;;;;-6.49;89.05;102467.13;5028065;28;20064;-64
2022/12/17 22:33:28;;;;;;;37.58;19.63;;;;;;;-6.54;88.91;102482.59;5031005;28;20049;-64
2022/12/17 22:36:00;;;;;;;41.03;16.98;;;;;;;-6.57;88.23;102481.56;5029792;28;20026;-63
2022/12/17 22:38:25;;;;;;;38.70;17.25;;;;;;;-6.55;88.60;102481.69;5025543;28;20068;-64
2022/12/17 22:40:51;;;;;;;36.08;16.58;;;;;;;-6.54;88.34;102475.94;5025142;28;20054;-64
2022/12/17 22:43:28;;;;;;;36.85;16.40;;;;;;;-6.56;88.39;102479.94;5033825;28;20032;-64
2022/12/17 22:46:01;;;;;;;37.67;16.77;;;;;;;-6.57;88.79;102484.06;5023929;28;20049;-63
2022/12/17 22:48:29;;;;;;;35.00;15.30;;;;;;;-6.57;88.17;102491.59;5029346;28;20071;-64
2022/12/17 22:50:55;;;;;;;37.50;16.98;;;;;;;-6.50;88.73;102490.50;5026299;28;20036;-63
2022/12/17 22:53:22;;;;;;;38.22;16.88;;;;;;;-6.41;87.66;102495.44;5023943;28;20410;-63
2022/12/17 22:55:48;;;;;;;35.63;15.57;;;;;;;-6.39;87.42;102484.78;5027409;28;20036;-64
2022/12/17 22:58:13;;;;;;;36.05;15.50;;;;;;;-6.43;87.46;102494.44;5028492;28;20064;-63
2022/12/17 23:00:39;;;;;;;37.80;16.10;;;;;;;-6.46;87.74;102490.03;5018887;28;20046;-64
2022/12/17 23:03:05;;;;;;;36.80;14.73;;;;;;;-6.45;88.26;102493.44;5028134;28;20044;-63
2022/12/17 23:05:31;;;;;;;35.80;15.77;;;;;;;-6.49;88.30;102492.28;5029203;28;20037;-63
2022/12/17 23:07:57;;;;;;;27.45;13.68;;;;;;;-6.50;88.45;102495.53;5027432;28;20088;-64
2022/12/17 23:10:24;;;;;;;33.80;14.98;;;;;;;-6.50;88.02;102485.47;5031706;28;20030;-63
2022/12/17 23:12:50;;;;;;;31.88;15.27;;;;;;;-6.52;88.23;102484.47;5025242;28;20041;-64
2022/12/17 23:15:25;;;;;;;33.00;14.20;;;;;;;-6.51;88.17;102495.44;5023689;28;20010;-64
2022/12/17 23:17:54;;;;;;;32.42;15.48;;;;;;;-6.50;88.84;102499.69;5028717;28;20294;-63
2022/12/17 23:20:20;;;;;;;37.20;16.35;;;;;;;-6.45;88.68;102501.88;5029718;28;20395;-63
2022/12/17 23:22:45;;;;;;;37.83;16.60;;;;;;;-6.39;89.00;102501.53;5020258;28;20040;-62
2022/12/17 23:25:11;;;;;;;42.40;16.15;;;;;;;-6.38;88.84;102504.16;5026669;28;20172;-65
2022/12/17 23:27:37;;;;;;;37.28;15.30;;;;;;;-6.36;88.53;102505.16;5025533;28;20470;-64
2022/12/17 23:30:04;;;;;;;33.15;14.98;;;;;;;-6.32;88.72;102507.19;5025281;28;20637;-63
2022/12/17 23:32:29;;;;;;;42.67;16.85;;;;;;;-6.30;88.25;102489.75;5028211;28;20088;-62
2022/12/17 23:34:55;;;;;;;34.60;15.18;;;;;;;-6.35;88.90;102486.81;5027407;28;20033;-63
2022/12/17 23:37:20;;;;;;;31.20;15.35;;;;;;;-6.40;88.15;102478.00;5028927;28;20048;-64
2022/12/17 23:39:45;;;;;;;37.70;15.85;;;;;;;-6.44;88.38;102480.09;5026651;28;20453;-64
2022/12/17 23:42:11;;;;;;;30.70;14.80;;;;;;;-6.48;88.57;102478.97;5031096;28;20037;-64
2022/12/17 23:44:36;;;;;;;38.38;15.88;;;;;;;-6.48;88.64;102486.53;5029778;28;20021;-63
2022/12/17 23:47:02;;;;;;;41.47;16.40;;;;;;;-6.49;88.53;102494.81;5032554;28;20065;-64
2022/12/17 23:49:27;;;;;;;37.63;17.02;;;;;;;-6.48;88.98;102498.22;5028621;28;20503;-64
2022/12/17 23:51:53;;;;;;;35.85;16.05;;;;;;;-6.48;89.00;102489.03;5027045;28;20040;-64
2022/12/17 23:54:18;;;;;;;35.80;16.02;;;;;;;-6.45;88.69;102486.78;5029215;28;20057;-63
2022/12/17 23:56:44;;;;;;;37.58;16.33;;;;;;;-6.43;88.79;102475.22;5032020;28;20117;-69
2022/12/17 23:59:10;;;;;;;36.42;17.35;;;;;;;-6.43;89.31;102482.75;5024598;28;20052;-67
